createdAt,value
2018-08-25T00:00:07.175Z,98932.00
2018-08-25T00:02:13.133Z,98937.00
2018-08-25T00:04:17.567Z,98926.00
2018-08-25T00:06:22.024Z,98923.00
2018-08-25T00:08:26.454Z,98926.00
2018-08-25T00:10:30.995Z,98919.00
2018-08-25T00:12:35.477Z,98920.00
2018-08-25T00:14:39.935Z,98911.00
2018-08-25T00:16:44.583Z,98910.00
2018-08-25T00:18:49.035Z,98900.00
2018-08-25T00:20:53.476Z,98909.00
2018-08-25T00:22:57.939Z,98901.00
2018-08-25T00:25:02.679Z,98897.00
2018-08-25T00:27:08.114Z,98882.00
2018-08-25T00:29:13.240Z,98885.00
2018-08-25T00:31:23.522Z,98885.00
2018-08-25T00:33:28.327Z,98876.00
2018-08-25T00:35:33.331Z,98874.00
2018-08-25T00:37:40.011Z,98874.00
2018-08-25T00:39:44.450Z,98877.00
2018-08-25T00:41:48.854Z,98862.00
2018-08-25T00:43:53.542Z,98873.00
2018-08-25T00:45:58.047Z,98861.00
2018-08-25T00:48:02.506Z,98859.00
2018-08-25T00:50:07.017Z,98866.00
2018-08-25T00:52:11.478Z,98868.00
2018-08-25T00:54:16.260Z,98854.00
2018-08-25T00:56:20.688Z,98857.00
2018-08-25T00:58:25.161Z,98851.00
2018-08-25T01:00:32.410Z,98859.00
2018-08-25T01:02:39.479Z,98854.00
2018-08-25T01:04:47.266Z,98855.00
2018-08-25T01:06:51.918Z,98841.00
2018-08-25T01:09:00.154Z,98839.00
2018-08-25T01:11:06.310Z,98836.00
2018-08-25T01:13:15.228Z,98831.00
2018-08-25T01:15:22.164Z,98838.00
2018-08-25T01:17:27.588Z,98833.00
2018-08-25T01:19:34.885Z,98831.00
2018-08-25T01:21:42.306Z,98819.00
2018-08-25T01:23:49.715Z,98826.00
2018-08-25T01:25:55.154Z,98825.00
2018-08-25T01:28:01.448Z,98828.00
2018-08-25T01:30:08.413Z,98817.00
2018-08-25T01:32:16.610Z,98815.00
2018-08-25T01:34:23.239Z,98804.00
2018-08-25T01:36:29.710Z,98813.00
2018-08-25T01:38:37.199Z,98798.00
2018-08-25T01:40:41.720Z,98804.00
2018-08-25T01:42:50.012Z,98807.00
2018-08-25T01:44:59.773Z,98801.00
2018-08-25T01:47:08.090Z,98787.00
2018-08-25T01:49:14.542Z,98794.00
2018-08-25T01:51:21.399Z,98803.00
2018-08-25T01:53:29.670Z,98803.00
2018-08-25T01:55:39.998Z,98791.00
2018-08-25T01:57:47.015Z,98778.00
2018-08-25T01:59:54.590Z,98775.00
2018-08-25T02:02:00.435Z,98781.00
2018-08-25T02:04:05.714Z,98779.00
2018-08-25T02:06:12.736Z,98770.00
2018-08-25T02:08:20.840Z,98767.00
2018-08-25T02:10:27.694Z,98772.00
2018-08-25T02:12:34.518Z,98758.00
2018-08-25T02:14:42.548Z,98754.00
2018-08-25T02:16:49.857Z,98757.00
2018-08-25T02:18:58.047Z,98753.00
2018-08-25T02:21:03.642Z,98747.00
2018-08-25T02:23:08.062Z,98750.00
2018-08-25T02:25:12.459Z,98744.00
2018-08-25T02:27:17.310Z,98743.00
2018-08-25T02:29:21.716Z,98739.00
2018-08-25T02:31:26.133Z,98737.00
2018-08-25T02:33:30.632Z,98730.00
2018-08-25T02:35:35.377Z,98735.00
2018-08-25T02:37:39.775Z,98728.00
2018-08-25T02:39:44.248Z,98732.00
2018-08-25T02:41:48.642Z,98735.00
2018-08-25T02:43:53.081Z,98723.00
2018-08-25T02:45:57.534Z,98726.00
2018-08-25T02:48:01.947Z,98726.00
2018-08-25T02:50:06.371Z,98716.00
2018-08-25T02:52:10.790Z,98722.00
2018-08-25T02:54:15.679Z,98710.00
2018-08-25T02:56:20.135Z,98702.00
2018-08-25T02:58:24.616Z,98709.00
2018-08-25T03:00:29.036Z,98692.00
2018-08-25T03:02:33.465Z,98687.00
2018-08-25T03:04:37.896Z,98682.00
2018-08-25T03:06:42.310Z,98678.00
2018-08-25T03:08:46.854Z,98672.00
2018-08-25T03:10:51.292Z,98673.00
2018-08-25T03:12:55.796Z,98674.00
2018-08-25T03:15:00.233Z,98681.00
2018-08-25T03:17:04.699Z,98683.00
2018-08-25T03:19:09.157Z,98678.00
2018-08-25T03:21:13.602Z,98668.00
2018-08-25T03:23:18.335Z,98660.00
2018-08-25T03:25:22.732Z,98661.00
2018-08-25T03:27:27.142Z,98658.00
2018-08-25T03:29:31.583Z,98658.00
2018-08-25T03:31:36.019Z,98652.00
2018-08-25T03:33:40.462Z,98665.00
2018-08-25T03:35:44.877Z,98659.00
2018-08-25T03:37:49.399Z,98662.00
2018-08-25T03:39:54.046Z,98666.00
2018-08-25T03:41:58.442Z,98656.00
2018-08-25T03:44:03.017Z,98659.00
2018-08-25T03:46:07.467Z,98656.00
2018-08-25T03:48:11.878Z,98661.00
2018-08-25T03:50:16.515Z,98667.00
2018-08-25T03:52:20.955Z,98670.00
2018-08-25T03:54:25.374Z,98674.00
2018-08-25T03:56:29.814Z,98679.00
2018-08-25T03:58:34.283Z,98683.00
2018-08-25T04:00:38.702Z,98670.00
2018-08-25T04:02:45.999Z,98670.00
2018-08-25T04:04:53.392Z,98670.00
2018-08-25T04:06:59.188Z,98680.00
2018-08-25T04:09:10.194Z,98675.00
2018-08-25T04:11:16.334Z,98685.00
2018-08-25T04:13:22.648Z,98676.00
2018-08-25T04:15:29.201Z,98674.00
2018-08-25T04:17:35.874Z,98676.00
2018-08-25T04:19:40.411Z,98671.00
2018-08-25T04:21:48.926Z,98660.00
2018-08-25T04:23:59.186Z,98671.00
2018-08-25T04:26:08.845Z,98666.00
2018-08-25T04:28:19.004Z,98661.00
2018-08-25T04:30:30.042Z,98660.00
2018-08-25T04:32:34.604Z,98664.00
2018-08-25T04:34:39.026Z,98660.00
2018-08-25T04:36:43.462Z,98658.00
2018-08-25T04:38:47.885Z,98671.00
2018-08-25T04:40:52.687Z,98652.00
2018-08-25T04:42:57.634Z,98651.00
2018-08-25T04:45:02.074Z,98652.00
2018-08-25T04:47:08.083Z,98650.00
2018-08-25T04:49:12.572Z,98646.00
2018-08-25T04:51:17.738Z,98654.00
2018-08-25T04:53:22.186Z,98649.00
2018-08-25T04:55:26.595Z,98656.00
2018-08-25T04:57:31.067Z,98652.00
2018-08-25T04:59:35.516Z,98648.00
2018-08-25T05:01:40.084Z,98642.00
2018-08-25T05:03:44.543Z,98649.00
2018-08-25T05:05:48.974Z,98653.00
2018-08-25T05:07:53.663Z,98657.00
2018-08-25T05:09:58.958Z,98658.00
2018-08-25T05:12:03.903Z,98657.00
2018-08-25T05:14:09.135Z,98660.00
2018-08-25T05:16:13.636Z,98658.00
2018-08-25T05:18:18.122Z,98658.00
2018-08-25T05:20:22.530Z,98661.00
2018-08-25T05:22:26.962Z,98660.00
2018-08-25T05:24:31.402Z,98660.00
2018-08-25T05:26:35.834Z,98662.00
2018-08-25T05:28:40.297Z,98669.00
2018-08-25T05:30:44.735Z,98661.00
2018-08-25T05:32:49.880Z,98667.00
2018-08-25T05:34:54.351Z,98667.00
2018-08-25T05:36:58.786Z,98669.00
2018-08-25T05:39:03.610Z,98668.00
2018-08-25T05:41:08.023Z,98665.00
2018-08-25T05:43:12.455Z,98669.00
2018-08-25T05:45:18.034Z,98666.00
2018-08-25T05:47:22.783Z,98673.00
2018-08-25T05:49:27.202Z,98673.00
2018-08-25T05:51:31.758Z,98673.00
2018-08-25T05:53:36.203Z,98682.00
2018-08-25T05:55:40.610Z,98683.00
2018-08-25T05:57:45.149Z,98681.00
2018-08-25T05:59:49.523Z,98694.00
2018-08-25T06:01:53.927Z,98698.00
2018-08-25T06:03:58.530Z,98699.00
2018-08-25T06:06:02.964Z,98699.00
2018-08-25T06:08:07.460Z,98691.00
2018-08-25T06:10:12.007Z,98704.00
2018-08-25T06:12:16.516Z,98701.00
2018-08-25T06:14:20.950Z,98710.00
2018-08-25T06:16:25.470Z,98706.00
2018-08-25T06:18:29.947Z,98702.00
2018-08-25T06:20:34.390Z,98701.00
2018-08-25T06:22:38.901Z,98706.00
2018-08-25T06:24:43.341Z,98698.00
2018-08-25T06:26:48.281Z,98702.00
2018-08-25T06:28:52.762Z,98704.00
2018-08-25T06:30:57.396Z,98711.00
2018-08-25T06:33:01.942Z,98719.00
2018-08-25T06:35:08.110Z,98726.00
2018-08-25T06:37:12.584Z,98724.00
2018-08-25T06:39:17.687Z,98727.00
2018-08-25T06:41:22.107Z,98723.00
2018-08-25T06:43:29.061Z,98720.00
2018-08-25T06:45:33.538Z,98716.00
2018-08-25T06:47:39.148Z,98707.00
2018-08-25T06:49:43.920Z,98713.00
2018-08-25T06:51:48.331Z,98719.00
2018-08-25T06:53:53.231Z,98723.00
2018-08-25T06:55:57.779Z,98734.00
2018-08-25T06:58:02.272Z,98729.00
2018-08-25T07:00:08.020Z,98732.00
2018-08-25T07:02:12.446Z,98731.00
2018-08-25T07:04:17.026Z,98740.00
2018-08-25T07:06:21.441Z,98739.00
2018-08-25T07:08:25.904Z,98742.00
2018-08-25T07:10:30.346Z,98744.00
2018-08-25T07:12:34.782Z,98740.00
2018-08-25T07:14:39.910Z,98739.00
2018-08-25T07:16:44.411Z,98754.00
2018-08-25T07:18:49.023Z,98755.00
2018-08-25T07:20:53.627Z,98752.00
2018-08-25T07:22:58.303Z,98754.00
2018-08-25T07:25:02.796Z,98762.00
2018-08-25T07:27:07.314Z,98755.00
2018-08-25T07:29:12.232Z,98761.00
2018-08-25T07:31:16.955Z,98763.00
2018-08-25T07:33:21.370Z,98772.00
2018-08-25T07:35:26.134Z,98775.00
2018-08-25T07:37:30.563Z,98772.00
2018-08-25T07:39:36.723Z,98769.00
2018-08-25T07:41:41.240Z,98767.00
2018-08-25T07:43:45.975Z,98777.00
2018-08-25T07:45:50.428Z,98776.00
2018-08-25T07:47:55.056Z,98769.00
2018-08-25T07:49:59.902Z,98772.00
2018-08-25T07:52:05.491Z,98767.00
2018-08-25T07:54:10.041Z,98772.00
2018-08-25T07:56:14.590Z,98782.00
2018-08-25T07:58:19.138Z,98782.00
2018-08-25T08:00:24.475Z,98785.00
2018-08-25T08:02:28.968Z,98788.00
2018-08-25T08:04:33.490Z,98776.00
2018-08-25T08:06:37.929Z,98777.00
2018-08-25T08:08:42.418Z,98785.00
2018-08-25T08:10:46.855Z,98783.00
2018-08-25T08:12:51.385Z,98781.00
2018-08-25T08:14:56.012Z,98784.00
2018-08-25T08:17:00.455Z,98786.00
2018-08-25T08:19:06.099Z,98786.00
2018-08-25T08:21:10.632Z,98786.00
2018-08-25T08:23:15.082Z,98787.00
2018-08-25T08:25:19.532Z,98782.00
2018-08-25T08:27:23.986Z,98795.00
2018-08-25T08:29:28.454Z,98799.00
2018-08-25T08:31:32.879Z,98796.00
2018-08-25T08:33:37.375Z,98800.00
2018-08-25T08:35:41.834Z,98807.00
2018-08-25T08:37:46.646Z,98800.00
2018-08-25T08:39:51.145Z,98816.00
2018-08-25T08:41:55.650Z,98812.00
2018-08-25T08:44:00.077Z,98805.00
2018-08-25T08:46:05.499Z,98816.00
2018-08-25T08:48:09.947Z,98817.00
2018-08-25T08:50:14.489Z,98813.00
2018-08-25T08:52:18.964Z,98821.00
2018-08-25T08:54:23.436Z,98814.00
2018-08-25T08:56:27.900Z,98826.00
2018-08-25T08:58:32.362Z,98818.00
2018-08-25T09:00:36.846Z,98813.00
2018-08-25T09:02:41.259Z,98825.00
2018-08-25T09:04:47.366Z,98818.00
2018-08-25T09:06:51.786Z,98820.00
2018-08-25T09:08:56.315Z,98824.00
2018-08-25T09:11:00.736Z,98826.00
2018-08-25T09:13:06.354Z,98826.00
2018-08-25T09:15:11.053Z,98828.00
2018-08-25T09:17:15.502Z,98829.00
2018-08-25T09:19:20.004Z,98838.00
2018-08-25T09:21:24.611Z,98839.00
2018-08-25T09:23:29.019Z,98843.00
2018-08-25T09:25:33.750Z,98839.00
2018-08-25T09:27:38.162Z,98848.00
2018-08-25T09:29:42.575Z,98848.00
2018-08-25T09:31:47.043Z,98859.00
2018-08-25T09:33:51.663Z,98858.00
2018-08-25T09:35:56.129Z,98858.00
2018-08-25T09:38:00.599Z,98860.00
2018-08-25T09:40:05.351Z,98868.00
2018-08-25T09:42:09.832Z,98863.00
2018-08-25T09:44:14.366Z,98858.00
2018-08-25T09:46:18.822Z,98863.00
2018-08-25T09:48:23.278Z,98859.00
2018-08-25T09:50:27.795Z,98855.00
2018-08-25T09:52:33.075Z,98856.00
2018-08-25T09:54:37.541Z,98865.00
2018-08-25T09:56:41.992Z,98865.00
2018-08-25T09:58:46.751Z,98858.00
2018-08-25T10:00:56.637Z,98865.00
2018-08-25T10:03:01.255Z,98867.00
2018-08-25T10:05:08.305Z,98870.00
2018-08-25T10:07:12.668Z,98887.00
2018-08-25T10:09:17.131Z,98876.00
2018-08-25T10:11:21.747Z,98879.00
2018-08-25T10:13:27.428Z,98878.00
2018-08-25T10:15:31.858Z,98882.00
2018-08-25T10:17:36.491Z,98873.00
2018-08-25T10:19:41.039Z,98890.00
2018-08-25T10:21:46.651Z,98868.00
2018-08-25T10:23:51.103Z,98883.00
2018-08-25T10:25:55.550Z,98879.00
2018-08-25T10:28:00.268Z,98895.00
2018-08-25T10:30:04.956Z,98897.00
2018-08-25T10:32:09.379Z,98905.00
2018-08-25T10:34:13.827Z,98906.00
2018-08-25T10:36:18.338Z,98901.00
2018-08-25T10:38:24.228Z,98892.00
2018-08-25T10:40:28.703Z,98895.00
2018-08-25T10:42:33.295Z,98889.00
2018-08-25T10:44:37.711Z,98885.00
2018-08-25T10:46:42.151Z,98886.00
2018-08-25T10:48:47.002Z,98887.00
2018-08-25T10:50:51.463Z,98885.00
2018-08-25T10:52:55.870Z,98879.00
2018-08-25T10:55:00.391Z,98881.00
2018-08-25T10:57:04.993Z,98885.00
2018-08-25T10:59:09.509Z,98895.00
2018-08-25T11:01:14.343Z,98889.00
2018-08-25T11:03:18.722Z,98890.00
2018-08-25T11:05:23.147Z,98897.00
2018-08-25T11:07:27.567Z,98895.00
2018-08-25T11:09:32.074Z,98890.00
2018-08-25T11:11:36.494Z,98888.00
2018-08-25T11:13:40.927Z,98891.00
2018-08-25T11:15:45.347Z,98891.00
2018-08-25T11:17:49.768Z,98890.00
2018-08-25T11:19:54.232Z,98886.00
2018-08-25T11:21:58.708Z,98899.00
2018-08-25T11:24:03.181Z,98890.00
2018-08-25T11:26:07.714Z,98896.00
2018-08-25T11:28:12.206Z,98893.00
2018-08-25T11:30:16.739Z,98888.00
2018-08-25T11:32:21.440Z,98885.00
2018-08-25T11:34:25.872Z,98885.00
2018-08-25T11:36:30.343Z,98897.00
2018-08-25T11:38:34.819Z,98896.00
2018-08-25T11:40:39.230Z,98900.00
2018-08-25T11:42:43.695Z,98904.00
2018-08-25T11:44:48.095Z,98905.00
2018-08-25T11:46:52.616Z,98902.00
2018-08-25T11:48:57.044Z,98899.00
2018-08-25T11:51:01.587Z,98903.00
2018-08-25T11:53:06.110Z,98904.00
2018-08-25T11:55:10.563Z,98908.00
2018-08-25T11:57:15.011Z,98906.00
2018-08-25T11:59:19.455Z,98896.00
2018-08-25T12:01:24.288Z,98899.00
2018-08-25T12:03:28.800Z,98899.00
2018-08-25T12:05:33.184Z,98905.00
2018-08-25T12:07:38.837Z,98902.00
2018-08-25T12:09:43.323Z,98910.00
2018-08-25T12:11:47.766Z,98909.00
2018-08-25T12:13:52.303Z,98920.00
2018-08-25T12:15:56.731Z,98920.00
2018-08-25T12:18:01.227Z,98916.00
2018-08-25T12:20:06.352Z,98918.00
2018-08-25T12:22:10.867Z,98915.00
2018-08-25T12:24:16.979Z,98926.00
2018-08-25T12:26:21.505Z,98922.00
2018-08-25T12:28:26.563Z,98920.00
2018-08-25T12:30:31.115Z,98916.00
2018-08-25T12:32:35.570Z,98923.00
2018-08-25T12:34:40.123Z,98917.00
2018-08-25T12:36:44.660Z,98913.00
2018-08-25T12:38:49.499Z,98910.00
2018-08-25T12:40:53.958Z,98914.00
2018-08-25T12:42:58.455Z,98925.00
2018-08-25T12:45:02.968Z,98921.00
2018-08-25T12:47:07.962Z,98925.00
2018-08-25T12:49:12.704Z,98933.00
2018-08-25T12:51:17.134Z,98926.00
2018-08-25T12:53:21.612Z,98937.00
2018-08-25T12:55:26.219Z,98940.00
2018-08-25T12:57:30.637Z,98935.00
2018-08-25T12:59:35.146Z,98941.00
2018-08-25T13:01:39.941Z,98951.00
2018-08-25T13:03:45.822Z,98954.00
2018-08-25T13:05:50.329Z,98964.00
2018-08-25T13:07:54.803Z,98956.00
2018-08-25T13:09:59.512Z,98955.00
2018-08-25T13:12:04.353Z,98952.00
2018-08-25T13:14:09.166Z,98958.00
2018-08-25T13:16:13.622Z,98962.00
2018-08-25T13:18:18.108Z,98955.00
2018-08-25T13:20:22.614Z,98956.00
2018-08-25T13:22:28.190Z,98955.00
2018-08-25T13:24:32.823Z,98951.00
2018-08-25T13:26:37.258Z,98950.00
2018-08-25T13:28:41.750Z,98942.00
2018-08-25T13:30:46.221Z,98946.00
2018-08-25T13:32:50.727Z,98950.00
2018-08-25T13:34:55.187Z,98942.00
2018-08-25T13:36:59.614Z,98952.00
2018-08-25T13:39:06.085Z,98962.00
2018-08-25T13:41:10.573Z,98968.00
2018-08-25T13:43:15.195Z,98977.00
2018-08-25T13:45:19.780Z,98991.00
2018-08-25T13:47:24.267Z,99018.00
2018-08-25T13:49:28.757Z,99030.00
2018-08-25T13:51:33.519Z,99022.00
2018-08-25T13:53:37.964Z,99031.00
2018-08-25T13:55:42.435Z,99038.00
2018-08-25T13:57:46.871Z,99037.00
2018-08-25T13:59:51.377Z,99030.00
2018-08-25T14:01:55.819Z,99038.00
2018-08-25T14:04:00.290Z,99028.00
2018-08-25T14:06:04.821Z,99021.00
2018-08-25T14:08:09.314Z,99030.00
2018-08-25T14:10:13.768Z,99024.00
2018-08-25T14:12:18.171Z,99031.00
2018-08-25T14:14:22.639Z,99031.00
2018-08-25T14:16:27.167Z,99021.00
2018-08-25T14:18:31.583Z,99023.00
2018-08-25T14:20:36.043Z,99021.00
2018-08-25T14:22:40.815Z,99012.00
2018-08-25T14:24:45.216Z,99014.00
2018-08-25T14:26:50.264Z,99012.00
2018-08-25T14:28:54.823Z,99015.00
2018-08-25T14:30:59.253Z,99018.00
2018-08-25T14:33:03.883Z,99003.00
2018-08-25T14:35:08.711Z,99002.00
2018-08-25T14:37:13.153Z,99005.00
2018-08-25T14:39:17.620Z,99009.00
2018-08-25T14:41:22.077Z,99012.00
2018-08-25T14:43:26.770Z,99015.00
2018-08-25T14:45:31.203Z,99011.00
2018-08-25T14:47:35.652Z,99019.00
2018-08-25T14:49:40.096Z,99023.00
2018-08-25T14:51:44.684Z,99023.00
2018-08-25T14:53:49.135Z,99033.00
2018-08-25T14:55:53.558Z,99031.00
2018-08-25T14:57:57.999Z,99037.00
2018-08-25T15:00:02.458Z,99039.00
2018-08-25T15:02:08.252Z,99044.00
2018-08-25T15:04:14.161Z,99058.00
2018-08-25T15:06:18.618Z,99060.00
2018-08-25T15:08:23.386Z,99056.00
2018-08-25T15:10:29.523Z,99065.00
2018-08-25T15:12:34.764Z,99071.00
2018-08-25T15:14:39.304Z,99062.00
2018-08-25T15:16:43.754Z,99064.00
2018-08-25T15:18:48.970Z,99061.00
2018-08-25T15:20:53.386Z,99063.00
2018-08-25T15:22:57.875Z,99064.00
2018-08-25T15:25:02.336Z,99070.00
2018-08-25T15:27:06.939Z,99069.00
2018-08-25T15:29:11.370Z,99080.00
2018-08-25T15:31:15.810Z,99073.00
2018-08-25T15:33:20.258Z,99082.00
2018-08-25T15:35:24.699Z,99076.00
2018-08-25T15:37:32.049Z,99082.00
2018-08-25T15:39:36.678Z,99078.00
2018-08-25T15:41:41.166Z,99074.00
2018-08-25T15:43:45.650Z,99080.00
2018-08-25T15:45:50.088Z,99076.00
2018-08-25T15:47:54.486Z,99083.00
2018-08-25T15:49:58.950Z,99079.00
2018-08-25T15:52:03.466Z,99081.00
2018-08-25T15:54:08.987Z,99091.00
2018-08-25T15:56:13.431Z,99095.00
2018-08-25T15:58:17.887Z,99101.00
2018-08-25T16:00:22.347Z,99102.00
2018-08-25T16:02:26.802Z,99096.00
2018-08-25T16:04:31.314Z,99097.00
2018-08-25T16:06:35.739Z,99105.00
2018-08-25T16:08:40.288Z,99090.00
2018-08-25T16:10:44.847Z,99095.00
2018-08-25T16:12:49.311Z,99097.00
2018-08-25T16:14:53.726Z,99096.00
2018-08-25T16:16:58.195Z,99093.00
2018-08-25T16:19:02.849Z,99101.00
2018-08-25T16:21:07.466Z,99106.00
2018-08-25T16:23:11.986Z,99099.00
2018-08-25T16:25:16.432Z,99102.00
2018-08-25T16:27:20.894Z,99103.00
2018-08-25T16:29:25.342Z,99109.00
2018-08-25T16:31:29.782Z,99107.00
2018-08-25T16:33:34.230Z,99107.00
2018-08-25T16:35:38.699Z,99109.00
2018-08-25T16:37:43.153Z,99118.00
2018-08-25T16:39:47.600Z,99110.00
2018-08-25T16:41:52.030Z,99116.00
2018-08-25T16:43:56.532Z,99123.00
2018-08-25T16:46:00.986Z,99122.00
2018-08-25T16:48:05.436Z,99127.00
2018-08-25T16:50:09.955Z,99123.00
2018-08-25T16:52:14.460Z,99132.00
2018-08-25T16:54:18.917Z,99126.00
2018-08-25T16:56:23.356Z,99132.00
2018-08-25T16:58:27.791Z,99128.00
2018-08-25T17:00:32.251Z,99122.00
2018-08-25T17:02:36.680Z,99127.00
2018-08-25T17:04:41.115Z,99127.00
2018-08-25T17:06:45.534Z,99128.00
2018-08-25T17:08:50.021Z,99130.00
2018-08-25T17:10:54.426Z,99135.00
2018-08-25T17:12:59.326Z,99136.00
2018-08-25T17:15:03.787Z,99146.00
2018-08-25T17:17:08.611Z,99142.00
2018-08-25T17:19:13.031Z,99139.00
2018-08-25T17:21:17.467Z,99139.00
2018-08-25T17:23:21.920Z,99147.00
2018-08-25T17:25:26.454Z,99156.00
2018-08-25T17:27:30.870Z,99153.00
2018-08-25T17:29:35.330Z,99151.00
2018-08-25T17:31:39.725Z,99161.00
2018-08-25T17:33:44.172Z,99163.00
2018-08-25T17:35:49.743Z,99162.00
2018-08-25T17:37:54.245Z,99178.00
2018-08-25T17:39:59.323Z,99170.00
2018-08-25T17:42:03.755Z,99181.00
2018-08-25T17:44:08.435Z,99168.00
2018-08-25T17:46:13.191Z,99179.00
2018-08-25T17:48:17.630Z,99177.00
2018-08-25T17:50:22.072Z,99188.00
2018-08-25T17:52:26.717Z,99180.00
2018-08-25T17:54:31.135Z,99181.00
2018-08-25T17:56:35.551Z,99198.00
2018-08-25T17:58:40.990Z,99198.00
2018-08-25T18:00:45.470Z,99201.00
2018-08-25T18:02:50.063Z,99207.00
2018-08-25T18:04:54.647Z,99209.00
2018-08-25T18:06:59.119Z,99212.00
2018-08-25T18:09:04.308Z,99214.00
2018-08-25T18:11:09.255Z,99208.00
2018-08-25T18:13:13.667Z,99212.00
2018-08-25T18:15:18.486Z,99219.00
2018-08-25T18:17:22.969Z,99221.00
2018-08-25T18:19:27.387Z,99216.00
2018-08-25T18:21:31.835Z,99224.00
2018-08-25T18:23:36.257Z,99232.00
2018-08-25T18:25:40.735Z,99229.00
2018-08-25T18:27:45.148Z,99230.00
2018-08-25T18:29:50.414Z,99236.00
2018-08-25T18:31:55.014Z,99240.00
2018-08-25T18:33:59.415Z,99248.00
2018-08-25T18:36:03.878Z,99244.00
2018-08-25T18:38:08.428Z,99244.00
2018-08-25T18:40:12.869Z,99251.00
2018-08-25T18:42:17.357Z,99250.00
2018-08-25T18:44:21.803Z,99257.00
2018-08-25T18:46:26.294Z,99259.00
2018-08-25T18:48:30.704Z,99270.00
2018-08-25T18:50:35.155Z,99270.00
2018-08-25T18:52:39.944Z,99267.00
2018-08-25T18:54:44.490Z,99272.00
2018-08-25T18:56:48.947Z,99264.00
2018-08-25T18:58:53.384Z,99279.00
2018-08-25T19:00:57.847Z,99276.00
2018-08-25T19:03:02.267Z,99289.00
2018-08-25T19:05:06.832Z,99290.00
2018-08-25T19:07:11.466Z,99297.00
2018-08-25T19:09:15.904Z,99294.00
2018-08-25T19:11:20.347Z,99293.00
2018-08-25T19:13:24.813Z,99293.00
2018-08-25T19:15:29.230Z,99291.00
2018-08-25T19:17:33.695Z,99297.00
2018-08-25T19:19:38.216Z,99297.00
2018-08-25T19:21:43.142Z,99304.00
2018-08-25T19:23:47.906Z,99308.00
2018-08-25T19:25:53.285Z,99308.00
2018-08-25T19:27:57.936Z,99316.00
2018-08-25T19:30:02.617Z,99315.00
2018-08-25T19:32:08.940Z,99310.00
2018-08-25T19:34:15.218Z,99317.00
2018-08-25T19:36:20.021Z,99323.00
2018-08-25T19:38:24.635Z,99317.00
2018-08-25T19:40:29.646Z,99321.00
2018-08-25T19:42:34.455Z,99322.00
2018-08-25T19:44:39.091Z,99316.00
2018-08-25T19:46:44.733Z,99314.00
2018-08-25T19:48:49.386Z,99322.00
2018-08-25T19:50:53.821Z,99311.00
2018-08-25T19:52:58.273Z,99314.00
2018-08-25T19:55:02.965Z,99322.00
2018-08-25T19:57:07.456Z,99318.00
2018-08-25T19:59:11.939Z,99329.00
2018-08-25T20:01:16.359Z,99320.00
2018-08-25T20:03:20.895Z,99331.00
2018-08-25T20:05:25.528Z,99336.00
2018-08-25T20:07:29.945Z,99339.00
2018-08-25T20:09:34.432Z,99341.00
2018-08-25T20:13:54.430Z,99345.00
2018-08-25T20:15:58.959Z,99347.00
2018-08-25T20:18:05.605Z,99348.00
2018-08-25T20:20:10.255Z,99340.00
2018-08-25T20:22:16.049Z,99354.00
2018-08-25T20:24:22.156Z,99354.00
2018-08-25T20:26:28.600Z,99359.00
2018-08-25T20:28:33.253Z,99362.00
2018-08-25T20:30:38.204Z,99356.00
2018-08-25T20:32:43.739Z,99354.00
2018-08-25T20:34:50.839Z,99362.00
2018-08-25T20:36:59.586Z,99361.00
2018-08-25T20:39:07.255Z,99378.00
2018-08-25T20:41:15.431Z,99377.00
2018-08-25T20:43:20.020Z,99375.00
2018-08-25T20:45:25.684Z,99383.00
2018-08-25T20:47:30.127Z,99383.00
2018-08-25T20:49:34.539Z,99376.00
2018-08-25T20:51:38.994Z,99386.00
2018-08-25T20:53:47.743Z,99384.00
2018-08-25T20:55:52.167Z,99383.00
2018-08-25T20:57:56.882Z,99381.00
2018-08-25T21:00:01.935Z,99383.00
2018-08-25T21:02:06.658Z,99380.00
2018-08-25T21:04:12.454Z,99382.00
2018-08-25T21:06:17.180Z,99395.00
2018-08-25T21:08:22.291Z,99393.00
2018-08-25T21:10:26.745Z,99392.00
2018-08-25T21:12:32.426Z,99402.00
2018-08-25T21:14:36.861Z,99405.00
2018-08-25T21:16:41.331Z,99394.00
2018-08-25T21:18:46.367Z,99394.00
2018-08-25T21:20:50.775Z,99387.00
2018-08-25T21:22:55.298Z,99390.00
2018-08-25T21:24:59.734Z,99386.00
2018-08-25T21:27:04.224Z,99384.00
2018-08-25T21:29:08.679Z,99392.00
2018-08-25T21:31:13.079Z,99400.00
2018-08-25T21:33:18.491Z,99392.00
2018-08-25T21:35:22.972Z,99396.00
2018-08-25T21:37:29.183Z,99400.00
2018-08-25T21:39:34.033Z,99390.00
2018-08-25T21:41:38.642Z,99398.00
2018-08-25T21:43:43.495Z,99397.00
2018-08-25T21:45:48.107Z,99398.00
2018-08-25T21:47:53.156Z,99387.00
2018-08-25T21:49:57.901Z,99393.00
2018-08-25T21:52:03.159Z,99396.00
2018-08-25T21:54:07.640Z,99391.00
2018-08-25T21:56:13.228Z,99396.00
2018-08-25T21:58:17.682Z,99385.00
2018-08-25T22:00:22.664Z,99383.00
2018-08-25T22:02:27.736Z,99386.00
2018-08-25T22:04:33.378Z,99385.00
2018-08-25T22:06:37.951Z,99389.00
2018-08-25T22:08:42.388Z,99381.00
2018-08-25T22:10:46.846Z,99395.00
2018-08-25T22:12:51.379Z,99398.00
2018-08-25T22:14:55.877Z,99386.00
2018-08-25T22:17:00.413Z,99383.00
2018-08-25T22:19:04.987Z,99397.00
2018-08-25T22:21:09.496Z,99395.00
2018-08-25T22:23:13.923Z,99399.00
2018-08-25T22:25:18.323Z,99399.00
2018-08-25T22:27:22.709Z,99397.00
2018-08-25T22:29:27.767Z,99402.00
2018-08-25T22:31:33.382Z,99396.00
2018-08-25T22:33:37.883Z,99392.00
2018-08-25T22:35:42.325Z,99402.00
2018-08-25T22:37:46.730Z,99408.00
2018-08-25T22:39:51.222Z,99396.00
2018-08-25T22:41:55.709Z,99404.00
2018-08-25T22:44:00.267Z,99410.00
2018-08-25T22:46:04.775Z,99414.00
2018-08-25T22:48:09.244Z,99411.00
2018-08-25T22:50:13.677Z,99407.00
2018-08-25T22:52:22.234Z,99400.00
2018-08-25T22:54:27.980Z,99398.00
2018-08-25T22:56:33.583Z,99404.00
2018-08-25T22:58:38.086Z,99414.00
2018-08-25T23:00:42.513Z,99419.00
2018-08-25T23:02:47.147Z,99413.00
2018-08-25T23:04:51.762Z,99419.00
2018-08-25T23:06:56.170Z,99418.00
2018-08-25T23:09:00.625Z,99417.00
2018-08-25T23:11:05.523Z,99422.00
2018-08-25T23:13:09.918Z,99418.00
2018-08-25T23:15:14.367Z,99421.00
2018-08-25T23:17:19.488Z,99430.00
2018-08-25T23:19:23.862Z,99424.00
2018-08-25T23:21:28.314Z,99423.00
2018-08-25T23:23:33.878Z,99424.00
2018-08-25T23:25:38.334Z,99422.00
2018-08-25T23:27:42.811Z,99423.00
2018-08-25T23:29:47.325Z,99427.00
2018-08-25T23:31:51.761Z,99432.00
2018-08-25T23:33:56.203Z,99432.00
2018-08-25T23:36:00.615Z,99429.00
2018-08-25T23:38:05.229Z,99440.00
2018-08-25T23:40:09.734Z,99434.00
2018-08-25T23:42:14.151Z,99429.00
2018-08-25T23:44:18.622Z,99435.00
2018-08-25T23:46:23.129Z,99439.00
2018-08-25T23:48:27.550Z,99445.00
2018-08-25T23:50:32.033Z,99440.00
2018-08-25T23:52:37.423Z,99440.00
2018-08-25T23:54:41.851Z,99442.00
2018-08-25T23:56:46.287Z,99444.00
2018-08-25T23:58:50.731Z,99440.00
